Time;durP1;ratioP1;P1;durP2;ratioP2;P2;SDS_P1;SDS_P2;PMS_P1;PMS_P2;Temp;Humidity;BMP_temperature;BMP_pressure;BME280_temperature;BME280_humidity;BME280_pressure;Samples;Min_cycle;Max_cycle;Signal;HPM_P1;HPM_P2
2022/09/02 00:00:14;;;;;;;4.27;3.57;;;;;;;;;;5071032;28;20894;-71
2022/09/02 00:02:41;;;;;;;4.20;3.20;;;;;;;;;;5070790;28;20525;-70
2022/09/02 00:05:09;;;;;;;3.10;2.80;;;;;;;;;;5070625;28;21338;-70
2022/09/02 00:07:36;;;;;;;3.47;3.17;;;;;;;;;;5070767;28;20449;-70
2022/09/02 00:10:03;;;;;;;3.30;3.00;;;;;;;;;;5070003;28;20534;-71
2022/09/02 00:12:30;;;;;;;3.20;2.90;;;;;;;;;;5069999;28;20553;-70
2022/09/02 00:14:57;;;;;;;3.90;3.50;;;;;;;;;;5070569;28;20442;-71
2022/09/02 00:17:26;;;;;;;3.57;2.80;;;;;;;;;;5069992;28;20547;-70
2022/09/02 00:19:55;;;;;;;4.50;3.50;;;;;;;;;;5069764;28;20450;-70
2022/09/02 00:22:22;;;;;;;3.33;3.03;;;;;;;;;;5070904;28;20874;-70
2022/09/02 00:24:50;;;;;;;3.93;3.03;;;;;;;;;;5069999;28;20473;-72
2022/09/02 00:27:17;;;;;;;3.07;2.77;;;;;;;;;;5070558;28;20457;-70
2022/09/02 00:29:44;;;;;;;3.30;3.00;;;;;;;;;;5070975;28;20453;-70
2022/09/02 00:32:11;;;;;;;8.20;3.27;;;;;;;;;;5070404;28;20540;-70
2022/09/02 00:34:40;;;;;;;3.40;2.93;;;;;;;;;;5070668;28;20468;-70
2022/09/02 00:37:07;;;;;;;3.30;2.97;;;;;;;;;;5070052;28;20453;-70
2022/09/02 00:39:34;;;;;;;3.47;3.13;;;;;;;;;;5070398;28;20441;-71
2022/09/02 00:42:01;;;;;;;3.93;3.10;;;;;;;;;;5070593;28;20485;-71
2022/09/02 00:44:29;;;;;;;3.40;2.83;;;;;;;;;;5070689;28;20449;-70
2022/09/02 00:46:56;;;;;;;3.37;3.00;;;;;;;;;;5070033;28;20449;-71
2022/09/02 00:49:25;;;;;;;3.40;3.10;;;;;;;;;;5070390;28;20454;-70
2022/09/02 00:51:55;;;;;;;4.03;3.30;;;;;;;;;;5070269;28;20485;-71
2022/09/02 00:54:23;;;;;;;3.00;2.80;;;;;;;;;;5070313;28;20816;-71
2022/09/02 00:56:50;;;;;;;3.00;2.50;;;;;;;;;;5069410;28;20525;-71
2022/09/02 00:59:20;;;;;;;3.33;3.00;;;;;;;;;;5070115;28;20811;-71
2022/09/02 01:01:48;;;;;;;3.20;2.57;;;;;;;;;;5070323;28;20488;-70
2022/09/02 01:04:15;;;;;;;3.40;3.10;;;;;;;;;;5066598;28;20453;-71
2022/09/02 01:06:43;;;;;;;3.70;2.57;;;;;;;;;;5070081;28;20456;-70
2022/09/02 01:09:13;;;;;;;4.33;3.83;;;;;;;;;;5074056;28;20455;-70
2022/09/02 01:11:42;;;;;;;3.30;2.57;;;;;;;;;;5074278;28;20463;-70
2022/09/02 01:14:11;;;;;;;3.50;3.20;;;;;;;;;;5073626;28;20617;-70
2022/09/02 01:16:41;;;;;;;3.60;3.30;;;;;;;;;;5073802;28;20484;-71
2022/09/02 01:19:11;;;;;;;2.73;2.53;;;;;;;;;;5073720;28;20981;-71
2022/09/02 01:21:38;;;;;;;2.73;2.50;;;;;;;;;;5074018;28;20484;-72
2022/09/02 01:24:07;;;;;;;3.20;2.87;;;;;;;;;;5073922;28;20457;-71
2022/09/02 01:26:34;;;;;;;4.13;3.33;;;;;;;;;;5073351;28;20822;-72
2022/09/02 01:29:01;;;;;;;3.57;3.23;;;;;;;;;;5073693;28;20822;-71
2022/09/02 01:31:28;;;;;;;3.53;3.23;;;;;;;;;;5074163;28;20575;-70
2022/09/02 01:33:56;;;;;;;4.63;3.83;;;;;;;;;;5073100;28;20537;-71
2022/09/02 01:36:24;;;;;;;3.20;2.90;;;;;;;;;;5073398;28;20465;-71
2022/09/02 01:38:51;;;;;;;8.43;3.73;;;;;;;;;;5073419;28;21013;-71
2022/09/02 01:41:19;;;;;;;3.10;2.80;;;;;;;;;;5073248;28;20483;-71
2022/09/02 01:43:47;;;;;;;4.23;3.30;;;;;;;;;;5073558;28;20457;-71
2022/09/02 01:46:14;;;;;;;3.20;2.90;;;;;;;;;;5073431;28;20446;-70
2022/09/02 01:48:41;;;;;;;3.63;3.30;;;;;;;;;;5073198;28;20495;-71
2022/09/02 01:51:08;;;;;;;4.13;3.70;;;;;;;;;;5072951;28;21044;-70
2022/09/02 01:53:35;;;;;;;3.20;2.60;;;;;;;;;;5073170;28;20454;-70
2022/09/02 01:56:03;;;;;;;3.07;2.87;;;;;;;;;;5072705;28;20528;-70
2022/09/02 01:58:31;;;;;;;4.57;2.80;;;;;;;;;;5073311;28;20449;-70
2022/09/02 02:00:58;;;;;;;3.93;3.37;;;;;;;;;;5072704;28;20477;-70
2022/09/02 02:03:26;;;;;;;3.20;2.80;;;;;;;;;;5072738;28;20970;-70
2022/09/02 02:05:53;;;;;;;3.40;2.70;;;;;;;;;;5072988;28;20452;-70
2022/09/02 02:08:20;;;;;;;7.60;3.63;;;;;;;;;;5073132;28;21002;-70
2022/09/02 02:10:48;;;;;;;2.90;2.60;;;;;;;;;;5073271;28;20454;-70
2022/09/02 02:13:16;;;;;;;3.17;2.90;;;;;;;;;;5072862;28;20510;-71
2022/09/02 02:15:44;;;;;;;2.83;2.63;;;;;;;;;;5073614;28;20457;-70
2022/09/02 02:18:12;;;;;;;3.20;3.00;;;;;;;;;;5072445;28;20453;-69
2022/09/02 02:20:39;;;;;;;3.20;2.80;;;;;;;;;;5075650;28;20899;-69
2022/09/02 02:23:06;;;;;;;3.67;3.00;;;;;;;;;;5083706;28;20451;-69
2022/09/02 02:25:33;;;;;;;3.33;2.60;;;;;;;;;;5085110;28;20487;-68
2022/09/02 02:28:00;;;;;;;4.60;4.00;;;;;;;;;;5083228;28;20459;-70
2022/09/02 02:30:27;;;;;;;3.20;2.90;;;;;;;;;;5079844;28;20524;-69
2022/09/02 02:32:56;;;;;;;4.10;2.63;;;;;;;;;;5072996;28;20457;-70
2022/09/02 02:35:23;;;;;;;3.03;2.40;;;;;;;;;;5072486;28;20449;-70
2022/09/02 02:37:50;;;;;;;4.20;3.00;;;;;;;;;;5072174;28;20453;-70
2022/09/02 02:40:19;;;;;;;3.17;2.97;;;;;;;;;;5072598;28;20460;-70
2022/09/02 02:42:46;;;;;;;4.87;3.23;;;;;;;;;;5072490;28;20493;-70
2022/09/02 02:45:13;;;;;;;3.30;2.70;;;;;;;;;;5072131;28;20437;-70
2022/09/02 02:47:41;;;;;;;3.60;3.23;;;;;;;;;;5072114;28;20557;-70
2022/09/02 02:50:11;;;;;;;3.73;2.40;;;;;;;;;;5062986;28;20535;-70
2022/09/02 02:52:39;;;;;;;4.07;2.80;;;;;;;;;;5072084;28;20465;-70
2022/09/02 02:55:08;;;;;;;3.27;2.97;;;;;;;;;;5072489;28;20951;-70
2022/09/02 02:57:37;;;;;;;6.33;2.87;;;;;;;;;;5071664;28;20453;-70
2022/09/02 03:00:06;;;;;;;3.20;3.00;;;;;;;;;;5071955;28;20948;-70
2022/09/02 03:02:33;;;;;;;3.20;2.83;;;;;;;;;;5072119;28;20871;-69
2022/09/02 03:05:01;;;;;;;3.13;2.77;;;;;;;;;;5072155;28;20441;-70
2022/09/02 03:07:30;;;;;;;3.07;2.57;;;;;;;;;;5071408;28;20551;-69
2022/09/02 03:09:57;;;;;;;3.40;3.07;;;;;;;;;;5071678;28;20455;-70
2022/09/02 03:12:24;;;;;;;3.40;3.10;;;;;;;;;;5071939;28;20463;-70
2022/09/02 03:14:51;;;;;;;3.53;2.70;;;;;;;;;;5071477;28;20478;-70
2022/09/02 03:17:19;;;;;;;5.60;3.00;;;;;;;;;;5068125;28;20440;-70
2022/09/02 03:19:47;;;;;;;2.83;2.53;;;;;;;;;;5072028;28;20845;-70
2022/09/02 03:22:14;;;;;;;2.60;2.40;;;;;;;;;;5071532;28;21022;-70
2022/09/02 03:24:43;;;;;;;4.20;3.17;;;;;;;;;;5071124;28;20488;-70
2022/09/02 03:27:10;;;;;;;3.90;3.50;;;;;;;;;;5071195;28;20449;-70
2022/09/02 03:29:37;;;;;;;3.00;2.40;;;;;;;;;;5070812;28;20453;-70
2022/09/02 03:32:04;;;;;;;10.00;3.60;;;;;;;;;;5071200;28;20465;-70
2022/09/02 03:34:31;;;;;;;2.90;2.60;;;;;;;;;;5071149;28;20468;-70
2022/09/02 03:36:59;;;;;;;3.40;2.70;;;;;;;;;;5071179;28;20798;-71
2022/09/02 03:39:26;;;;;;;3.40;3.10;;;;;;;;;;5071006;28;20541;-70
2022/09/02 03:41:54;;;;;;;4.20;3.00;;;;;;;;;;5071302;28;20578;-70
2022/09/02 03:44:22;;;;;;;4.57;2.90;;;;;;;;;;5071855;28;20449;-71
2022/09/02 03:46:49;;;;;;;2.90;2.60;;;;;;;;;;5071009;28;20459;-70
2022/09/02 03:49:16;;;;;;;4.87;3.03;;;;;;;;;;5070744;28;20441;-70
2022/09/02 03:51:44;;;;;;;3.03;2.37;;;;;;;;;;5071412;28;20460;-70
2022/09/02 03:54:11;;;;;;;3.40;3.10;;;;;;;;;;5071358;28;20457;-70
2022/09/02 03:56:39;;;;;;;4.40;3.33;;;;;;;;;;5071211;28;21027;-70
2022/09/02 03:59:07;;;;;;;2.87;2.57;;;;;;;;;;5070748;28;20449;-70
2022/09/02 04:01:35;;;;;;;2.70;2.40;;;;;;;;;;5071016;28;20572;-71
2022/09/02 04:04:03;;;;;;;4.00;2.73;;;;;;;;;;5070012;28;20872;-70
2022/09/02 04:06:30;;;;;;;3.13;2.87;;;;;;;;;;5070570;28;20454;-70
2022/09/02 04:08:57;;;;;;;4.00;2.13;;;;;;;;;;5070009;28;20457;-71
2022/09/02 04:11:24;;;;;;;2.80;2.60;;;;;;;;;;5071039;28;20458;-71
2022/09/02 04:13:53;;;;;;;2.87;2.33;;;;;;;;;;5070609;28;20539;-71
2022/09/02 04:22:29;;;;;;;2.80;2.43;;;;;;;;;;5069171;28;20567;-70
2022/09/02 04:24:56;;;;;;;3.70;2.80;;;;;;;;;;5070167;28;20480;-70
2022/09/02 04:27:23;;;;;;;2.10;1.90;;;;;;;;;;5070092;28;20450;-70
2022/09/02 04:29:50;;;;;;;3.10;2.50;;;;;;;;;;5070196;28;20964;-71
2022/09/02 04:32:18;;;;;;;2.50;2.30;;;;;;;;;;5070319;28;20455;-70
2022/09/02 04:34:45;;;;;;;3.60;2.97;;;;;;;;;;5070523;28;20451;-70
2022/09/02 04:37:13;;;;;;;2.63;2.40;;;;;;;;;;5069717;28;20620;-70
2022/09/02 04:39:41;;;;;;;2.53;2.27;;;;;;;;;;5070330;28;21003;-70
2022/09/02 04:42:08;;;;;;;3.57;2.17;;;;;;;;;;5069611;28;20488;-70
2022/09/02 04:44:36;;;;;;;2.80;2.60;;;;;;;;;;5070558;28;20448;-71
2022/09/02 04:47:03;;;;;;;2.60;2.40;;;;;;;;;;5069709;28;20536;-70
2022/09/02 04:49:32;;;;;;;2.90;2.13;;;;;;;;;;5070177;28;20452;-71
2022/09/02 04:51:59;;;;;;;3.20;2.50;;;;;;;;;;5069510;28;20454;-70
2022/09/02 04:54:26;;;;;;;4.00;2.70;;;;;;;;;;5070335;28;20509;-70
2022/09/02 04:56:55;;;;;;;4.13;2.67;;;;;;;;;;5069868;28;20472;-70
2022/09/02 04:59:22;;;;;;;5.03;3.00;;;;;;;;;;5070543;28;20955;-70
2022/09/02 05:01:50;;;;;;;3.60;3.23;;;;;;;;;;5069626;28;20859;-72
2022/09/02 05:04:17;;;;;;;3.70;2.60;;;;;;;;;;5069082;28;20532;-70
2022/09/02 05:06:46;;;;;;;5.10;2.43;;;;;;;;;;5072592;28;20447;-70
2022/09/02 05:09:14;;;;;;;3.43;3.13;;;;;;;;;;5076359;28;20476;-69
2022/09/02 05:11:41;;;;;;;3.17;2.60;;;;;;;;;;5081666;28;20448;-69
2022/09/02 05:14:11;;;;;;;2.67;2.47;;;;;;;;;;5079279;28;20946;-70
2022/09/02 05:16:40;;;;;;;3.40;3.10;;;;;;;;;;5075953;28;20459;-72
2022/09/02 05:19:08;;;;;;;2.50;2.27;;;;;;;;;;5070210;28;20453;-72
2022/09/02 05:21:35;;;;;;;3.23;2.07;;;;;;;;;;5069734;28;21041;-70
2022/09/02 05:24:03;;;;;;;2.77;2.37;;;;;;;;;;5069676;28;20531;-71
2022/09/02 05:26:34;;;;;;;3.00;2.50;;;;;;;;;;5068788;28;20453;-72
2022/09/02 05:29:02;;;;;;;3.43;2.27;;;;;;;;;;5069314;28;20464;-73
2022/09/02 05:31:30;;;;;;;2.50;2.30;;;;;;;;;;5064815;28;21143;-72
2022/09/02 05:33:57;;;;;;;3.70;3.40;;;;;;;;;;5060926;28;20825;-72
2022/09/02 05:36:25;;;;;;;6.00;3.30;;;;;;;;;;5061300;28;21195;-72
2022/09/02 05:38:52;;;;;;;3.00;2.73;;;;;;;;;;5064056;28;20549;-72
2022/09/02 05:41:22;;;;;;;4.50;3.43;;;;;;;;;;5066631;28;20536;-72
2022/09/02 05:43:49;;;;;;;3.23;2.93;;;;;;;;;;5067427;28;20526;-72
2022/09/02 05:46:19;;;;;;;6.07;4.73;;;;;;;;;;5067679;28;20540;-71
2022/09/02 05:49:07;;;;;;;2.40;2.20;;;;;;;;;;5068198;28;20457;-72
2022/09/02 05:51:39;;;;;;;5.50;2.47;;;;;;;;;;5066425;28;20444;-72
2022/09/02 05:54:07;;;;;;;2.53;2.33;;;;;;;;;;5070763;28;20471;-71
2022/09/02 05:56:34;;;;;;;3.07;2.60;;;;;;;;;;5072055;28;21008;-72
2022/09/02 05:59:01;;;;;;;5.20;2.47;;;;;;;;;;5072859;28;20890;-72
2022/09/02 06:01:29;;;;;;;3.73;2.07;;;;;;;;;;5068288;28;20468;-72
2022/09/02 06:03:57;;;;;;;3.50;2.77;;;;;;;;;;5068311;28;20864;-72
2022/09/02 06:06:25;;;;;;;6.70;2.20;;;;;;;;;;5071253;28;20477;-71
2022/09/02 06:08:52;;;;;;;2.43;2.23;;;;;;;;;;5071933;28;20521;-72
2022/09/02 06:11:19;;;;;;;3.50;2.20;;;;;;;;;;5072843;28;20980;-72
2022/09/02 06:13:47;;;;;;;4.10;2.90;;;;;;;;;;5072528;28;20460;-71
2022/09/02 06:16:15;;;;;;;2.63;2.30;;;;;;;;;;5072828;28;20499;-72
2022/09/02 06:18:42;;;;;;;3.07;2.80;;;;;;;;;;5072296;28;20528;-68
2022/09/02 06:21:11;;;;;;;3.10;2.33;;;;;;;;;;5072279;28;20453;-69
2022/09/02 06:23:39;;;;;;;2.53;2.33;;;;;;;;;;5072428;28;20564;-70
2022/09/02 06:26:06;;;;;;;3.83;2.07;;;;;;;;;;5070685;28;20472;-71
2022/09/02 06:28:34;;;;;;;2.43;2.23;;;;;;;;;;5068167;28;20448;-71
2022/09/02 06:31:06;;;;;;;2.57;2.37;;;;;;;;;;5071772;28;20449;-71
2022/09/02 06:33:34;;;;;;;2.57;2.37;;;;;;;;;;5068817;28;20456;-71
2022/09/02 06:36:01;;;;;;;2.40;2.10;;;;;;;;;;5071065;28;20445;-71
2022/09/02 06:38:29;;;;;;;3.30;2.47;;;;;;;;;;5072822;28;20528;-71
2022/09/02 06:40:56;;;;;;;2.83;1.97;;;;;;;;;;5072190;28;20477;-71
2022/09/02 06:43:24;;;;;;;2.50;2.30;;;;;;;;;;5069907;28;20481;-71
2022/09/02 06:45:51;;;;;;;2.50;2.30;;;;;;;;;;5069085;28;20445;-71
2022/09/02 06:48:18;;;;;;;2.63;2.43;;;;;;;;;;5071301;28;20540;-71
2022/09/02 06:50:46;;;;;;;2.47;2.27;;;;;;;;;;5072199;28;21037;-71
2022/09/02 06:53:16;;;;;;;2.57;2.37;;;;;;;;;;5071991;28;20464;-70
2022/09/02 06:55:45;;;;;;;2.40;2.20;;;;;;;;;;5068969;28;20461;-70
2022/09/02 06:58:13;;;;;;;2.70;2.50;;;;;;;;;;5071828;28;20506;-70
2022/09/02 07:00:40;;;;;;;3.00;2.50;;;;;;;;;;5071403;28;20457;-70
2022/09/02 07:05:59;;;;;;;2.73;2.50;;;;;;;;;;5068495;28;20437;-70
2022/09/02 07:08:26;;;;;;;2.37;2.17;;;;;;;;;;5068791;28;20452;-70
2022/09/02 07:10:54;;;;;;;2.50;2.00;;;;;;;;;;5071572;28;20536;-70
2022/09/02 07:13:22;;;;;;;3.03;2.20;;;;;;;;;;5071650;28;20453;-70
2022/09/02 07:15:49;;;;;;;2.47;2.00;;;;;;;;;;5071364;28;20537;-70
2022/09/02 07:18:16;;;;;;;2.67;2.40;;;;;;;;;;5071429;28;21026;-70
2022/09/02 07:20:45;;;;;;;2.97;2.20;;;;;;;;;;5071466;28;20452;-70
2022/09/02 07:23:12;;;;;;;3.27;2.00;;;;;;;;;;5071367;28;20492;-69
2022/09/02 07:25:40;;;;;;;2.70;2.50;;;;;;;;;;5071689;28;20520;-70
2022/09/02 07:28:09;;;;;;;2.43;2.10;;;;;;;;;;5071004;28;20445;-70
2022/09/02 07:30:36;;;;;;;3.23;2.20;;;;;;;;;;5067454;28;20464;-70
2022/09/02 07:33:04;;;;;;;3.63;2.50;;;;;;;;;;5071162;28;20477;-71
2022/09/02 07:35:32;;;;;;;2.73;2.13;;;;;;;;;;5070738;28;20507;-71
2022/09/02 07:37:59;;;;;;;2.97;2.50;;;;;;;;;;5070164;28;20495;-71
2022/09/02 07:40:26;;;;;;;2.27;2.03;;;;;;;;;;5071004;28;20794;-71
2022/09/02 07:42:53;;;;;;;2.20;1.67;;;;;;;;;;5069775;28;20481;-71
2022/09/02 07:45:22;;;;;;;2.03;1.70;;;;;;;;;;5069137;28;20450;-71
2022/09/02 07:47:49;;;;;;;1.70;1.60;;;;;;;;;;5069670;28;20489;-72
2022/09/02 07:50:17;;;;;;;1.97;1.70;;;;;;;;;;5069461;28;20859;-72
2022/09/02 07:52:44;;;;;;;2.63;1.70;;;;;;;;;;5068287;28;20497;-72
2022/09/02 07:55:11;;;;;;;4.20;1.50;;;;;;;;;;5066679;28;20446;-72
2022/09/02 07:57:39;;;;;;;2.03;1.83;;;;;;;;;;5074602;28;20626;-71
2022/09/02 08:00:07;;;;;;;2.13;1.90;;;;;;;;;;5069861;28;20445;-71
2022/09/02 08:02:35;;;;;;;2.90;1.40;;;;;;;;;;5069888;28;20800;-72
2022/09/02 08:05:03;;;;;;;2.40;1.63;;;;;;;;;;5070698;28;20481;-71
2022/09/02 08:07:30;;;;;;;2.50;1.93;;;;;;;;;;5062029;28;20454;-72
2022/09/02 08:09:59;;;;;;;2.33;1.60;;;;;;;;;;5070222;28;20452;-72
2022/09/02 08:12:27;;;;;;;2.87;1.73;;;;;;;;;;5070387;28;20458;-71
2022/09/02 08:14:54;;;;;;;1.60;1.50;;;;;;;;;;5070804;28;20529;-83
2022/09/02 08:17:21;;;;;;;4.23;1.70;;;;;;;;;;5079492;28;20445;-79
2022/09/02 08:19:50;;;;;;;3.30;1.57;;;;;;;;;;5073496;28;20449;-74
2022/09/02 08:22:17;;;;;;;2.23;1.60;;;;;;;;;;5071876;28;20454;-71
2022/09/02 08:24:44;;;;;;;3.67;1.40;;;;;;;;;;5068507;28;20996;-72
2022/09/02 08:27:11;;;;;;;2.23;1.53;;;;;;;;;;5069581;28;20540;-72
2022/09/02 08:29:39;;;;;;;2.10;1.63;;;;;;;;;;5069888;28;20449;-71
2022/09/02 08:32:06;;;;;;;1.73;1.50;;;;;;;;;;5069359;28;20449;-71
2022/09/02 08:34:33;;;;;;;1.33;1.10;;;;;;;;;;5069131;28;20537;-71
2022/09/02 08:37:02;;;;;;;2.27;1.40;;;;;;;;;;5058705;28;20446;-71
2022/09/02 08:39:29;;;;;;;2.03;1.80;;;;;;;;;;5068219;28;20453;-70
2022/09/02 08:42:03;;;;;;;2.43;1.53;;;;;;;;;;5068691;28;20504;-71
2022/09/02 08:44:30;;;;;;;2.43;1.33;;;;;;;;;;5068584;28;20569;-71
2022/09/02 08:47:01;;;;;;;1.70;1.60;;;;;;;;;;5066390;28;20481;-71
2022/09/02 08:49:31;;;;;;;1.63;1.53;;;;;;;;;;5068539;28;20520;-71
2022/09/02 08:51:58;;;;;;;1.20;1.10;;;;;;;;;;5065106;28;20540;-72
2022/09/02 08:54:31;;;;;;;1.10;1.00;;;;;;;;;;5069319;28;20514;-72
2022/09/02 08:56:58;;;;;;;2.47;1.63;;;;;;;;;;5069258;28;20452;-72
2022/09/02 08:59:27;;;;;;;2.13;1.07;;;;;;;;;;5069699;28;20979;-71
2022/09/02 09:01:58;;;;;;;1.40;1.30;;;;;;;;;;5067991;28;20525;-71
2022/09/02 09:04:30;;;;;;;1.93;1.57;;;;;;;;;;5069256;28;20489;-72
2022/09/02 09:07:16;;;;;;;1.40;1.30;;;;;;;;;;5068759;28;20461;-72
2022/09/02 09:09:54;;;;;;;1.67;1.57;;;;;;;;;;5069662;28;21027;-72
2022/09/02 09:12:25;;;;;;;1.60;1.50;;;;;;;;;;5068918;28;20453;-72
2022/09/02 09:14:55;;;;;;;2.00;1.50;;;;;;;;;;5063908;28;20445;-71
2022/09/02 09:17:26;;;;;;;1.70;1.23;;;;;;;;;;5069528;28;20446;-71
2022/09/02 09:19:54;;;;;;;1.43;1.33;;;;;;;;;;5068503;28;20485;-71
2022/09/02 09:22:22;;;;;;;1.73;1.60;;;;;;;;;;5069833;28;20445;-72
2022/09/02 09:24:51;;;;;;;1.30;1.20;;;;;;;;;;5069391;28;20726;-71
2022/09/02 09:27:19;;;;;;;2.00;1.50;;;;;;;;;;5069362;28;20445;-72
2022/09/02 09:29:47;;;;;;;1.77;1.30;;;;;;;;;;5074027;28;20783;-72
2022/09/02 09:32:20;;;;;;;1.43;1.30;;;;;;;;;;5073088;28;20507;-71
2022/09/02 09:35:00;;;;;;;1.43;1.33;;;;;;;;;;5073508;28;20449;-72
2022/09/02 09:37:32;;;;;;;1.57;1.40;;;;;;;;;;5073445;28;20449;-71
2022/09/02 09:40:01;;;;;;;1.73;1.20;;;;;;;;;;5068700;28;20442;-72
2022/09/02 09:42:31;;;;;;;1.57;1.20;;;;;;;;;;5072318;28;20445;-72
2022/09/02 09:44:59;;;;;;;1.20;1.10;;;;;;;;;;5071452;28;20575;-72
2022/09/02 09:47:27;;;;;;;1.33;1.10;;;;;;;;;;5070644;28;20536;-72
2022/09/02 09:49:55;;;;;;;0.90;0.80;;;;;;;;;;5071344;28;20765;-72
2022/09/02 09:52:23;;;;;;;1.10;1.00;;;;;;;;;;5071567;28;20964;-70
2022/09/02 09:55:06;;;;;;;1.50;1.30;;;;;;;;;;5069956;28;20840;-70
2022/09/02 09:57:35;;;;;;;2.83;1.27;;;;;;;;;;5073337;28;20468;-73
2022/09/02 10:00:02;;;;;;;1.97;1.47;;;;;;;;;;5072595;28;20533;-73
2022/09/02 10:02:30;;;;;;;1.13;1.00;;;;;;;;;;5073459;28;20446;-72
2022/09/02 10:05:10;;;;;;;1.80;1.30;;;;;;;;;;5072737;28;20569;-73
2022/09/02 10:07:39;;;;;;;1.30;1.20;;;;;;;;;;5073013;28;20824;-73
2022/09/02 10:10:10;;;;;;;1.60;1.10;;;;;;;;;;5072342;28;20541;-73
2022/09/02 10:12:38;;;;;;;1.40;1.10;;;;;;;;;;5073380;28;20441;-73
2022/09/02 10:15:07;;;;;;;1.53;1.33;;;;;;;;;;5071740;28;20459;-75
2022/09/02 10:17:39;;;;;;;1.40;1.00;;;;;;;;;;5072477;28;20507;-72
2022/09/02 10:20:08;;;;;;;1.70;1.47;;;;;;;;;;5072046;28;20798;-71
2022/09/02 10:22:53;;;;;;;1.27;1.10;;;;;;;;;;5071774;28;20473;-72
2022/09/02 10:25:25;;;;;;;2.30;1.43;;;;;;;;;;5071500;28;20477;-72
2022/09/02 10:27:59;;;;;;;1.30;1.17;;;;;;;;;;5072330;28;20446;-72
2022/09/02 10:30:27;;;;;;;1.43;1.33;;;;;;;;;;5066904;28;20545;-72
2022/09/02 10:33:02;;;;;;;1.40;1.20;;;;;;;;;;5072453;28;20464;-72
2022/09/02 10:35:32;;;;;;;1.20;1.10;;;;;;;;;;5070600;28;20457;-72
2022/09/02 10:38:05;;;;;;;2.80;1.40;;;;;;;;;;5069161;28;20445;-71
2022/09/02 10:40:40;;;;;;;1.47;0.93;;;;;;;;;;5069126;28;20480;-71
2022/09/02 10:43:10;;;;;;;1.23;1.10;;;;;;;;;;5070299;28;20453;-71
2022/09/02 10:45:38;;;;;;;3.30;2.90;;;;;;;;;;5070539;28;20449;-72
2022/09/02 10:48:27;;;;;;;1.43;1.13;;;;;;;;;;5069180;28;20449;-71
2022/09/02 10:50:56;;;;;;;1.63;1.23;;;;;;;;;;5069954;28;20453;-71
2022/09/02 10:53:33;;;;;;;1.87;0.90;;;;;;;;;;5071591;28;20446;-71
2022/09/02 10:56:02;;;;;;;2.03;1.30;;;;;;;;;;5070822;28;20551;-70
2022/09/02 10:58:37;;;;;;;1.10;1.00;;;;;;;;;;5071552;28;20966;-71
2022/09/02 11:01:04;;;;;;;1.00;0.90;;;;;;;;;;5071781;28;20441;-72
2022/09/02 11:03:34;;;;;;;1.67;1.10;;;;;;;;;;5070180;28;20564;-71
2022/09/02 11:06:05;;;;;;;1.60;0.97;;;;;;;;;;5069601;28;20532;-71
2022/09/02 11:08:37;;;;;;;1.40;1.30;;;;;;;;;;5071180;28;20853;-71
2022/09/02 11:11:08;;;;;;;0.97;0.90;;;;;;;;;;5071736;28;20524;-71
2022/09/02 11:13:39;;;;;;;1.17;1.07;;;;;;;;;;5071963;28;20489;-71
2022/09/02 11:16:11;;;;;;;0.87;0.87;;;;;;;;;;5062633;28;20456;-71
2022/09/02 11:18:43;;;;;;;1.27;1.17;;;;;;;;;;5071607;28;20450;-71
2022/09/02 11:21:18;;;;;;;1.00;0.90;;;;;;;;;;5071542;28;20540;-71
2022/09/02 11:23:50;;;;;;;1.70;1.43;;;;;;;;;;5071778;28;20498;-71
2022/09/02 11:26:20;;;;;;;1.30;1.13;;;;;;;;;;5066370;28;20438;-71
2022/09/02 11:28:53;;;;;;;1.50;1.40;;;;;;;;;;5072215;28;20846;-71
2022/09/02 11:31:22;;;;;;;1.57;1.47;;;;;;;;;;5071671;28;20777;-71
2022/09/02 11:33:53;;;;;;;1.47;1.20;;;;;;;;;;5071213;28;20449;-71
2022/09/02 11:36:20;;;;;;;1.47;1.17;;;;;;;;;;5071308;28;20473;-71
2022/09/02 11:38:52;;;;;;;1.83;1.43;;;;;;;;;;5069844;28;20817;-71
2022/09/02 11:41:26;;;;;;;1.00;0.90;;;;;;;;;;5069606;28;20951;-71
2022/09/02 11:43:56;;;;;;;1.13;1.00;;;;;;;;;;5069629;28;20488;-71
2022/09/02 11:46:35;;;;;;;1.57;1.10;;;;;;;;;;5069902;28;20532;-71
2022/09/02 11:49:14;;;;;;;1.37;1.27;;;;;;;;;;5069422;28;21034;-72
2022/09/02 11:51:52;;;;;;;1.00;0.90;;;;;;;;;;5069388;28;20492;-72
2022/09/02 11:54:20;;;;;;;1.40;1.17;;;;;;;;;;5069132;28;20548;-72
2022/09/02 11:56:48;;;;;;;2.23;1.40;;;;;;;;;;5069935;28;20805;-71
2022/09/02 11:59:23;;;;;;;1.40;1.30;;;;;;;;;;5070267;28;20875;-72
2022/09/02 12:01:52;;;;;;;1.20;1.10;;;;;;;;;;5070245;28;20477;-71
2022/09/02 12:04:24;;;;;;;1.20;1.10;;;;;;;;;;5070448;28;20828;-71
2022/09/02 12:07:21;;;;;;;1.23;1.13;;;;;;;;;;5069329;28;20477;-71
2022/09/02 12:09:50;;;;;;;0.80;0.80;;;;;;;;;;5070542;28;20458;-72
2022/09/02 12:12:35;;;;;;;1.00;0.90;;;;;;;;;;5060590;28;20536;-71
2022/09/02 12:15:10;;;;;;;1.07;1.07;;;;;;;;;;5027027;28;20438;-71
2022/09/02 12:17:56;;;;;;;2.40;1.53;;;;;;;;;;5070175;28;20449;-72
2022/09/02 12:20:44;;;;;;;1.30;1.20;;;;;;;;;;5069650;28;20434;-71
2022/09/02 12:23:31;;;;;;;1.67;1.07;;;;;;;;;;5036382;28;20520;-72
2022/09/02 12:26:01;;;;;;;1.50;1.07;;;;;;;;;;5068588;28;20469;-71
2022/09/02 12:28:30;;;;;;;1.20;1.10;;;;;;;;;;5070455;28;20953;-71
2022/09/02 12:31:17;;;;;;;4.23;1.40;;;;;;;;;;5069646;28;20452;-72
2022/09/02 12:33:45;;;;;;;1.10;1.00;;;;;;;;;;5066766;28;20572;-71
2022/09/02 12:36:27;;;;;;;1.30;1.00;;;;;;;;;;5068011;28;20537;-71
2022/09/02 12:38:54;;;;;;;1.27;1.10;;;;;;;;;;5062331;28;21119;-71
2022/09/02 12:41:23;;;;;;;1.57;0.90;;;;;;;;;;5069978;28;20450;-70
2022/09/02 12:43:58;;;;;;;1.60;1.37;;;;;;;;;;5068283;28;20541;-72
2022/09/02 12:46:30;;;;;;;1.13;1.00;;;;;;;;;;5065907;28;20445;-72
2022/09/02 12:49:00;;;;;;;2.70;1.50;;;;;;;;;;5068532;28;20519;-72
2022/09/02 12:51:46;;;;;;;1.97;1.33;;;;;;;;;;5070194;28;20442;-71
2022/09/02 12:54:15;;;;;;;2.97;1.00;;;;;;;;;;5068822;28;20464;-71
2022/09/02 12:56:48;;;;;;;1.13;1.03;;;;;;;;;;5069277;28;20973;-71
2022/09/02 12:59:23;;;;;;;1.47;1.10;;;;;;;;;;5069129;28;20876;-71
2022/09/02 13:01:58;;;;;;;1.57;1.43;;;;;;;;;;5068722;28;20459;-71
2022/09/02 13:04:30;;;;;;;2.63;1.40;;;;;;;;;;5066284;28;20509;-71
2022/09/02 13:07:15;;;;;;;4.33;1.17;;;;;;;;;;5068024;28;20446;-71
2022/09/02 13:09:50;;;;;;;1.40;1.30;;;;;;;;;;5062850;28;20544;-72
2022/09/02 13:12:41;;;;;;;1.40;1.30;;;;;;;;;;5067682;28;20445;-71
2022/09/02 13:15:23;;;;;;;1.43;1.17;;;;;;;;;;4994810;28;20455;-71
2022/09/02 13:18:07;;;;;;;3.23;1.40;;;;;;;;;;5064305;28;20806;-71
2022/09/02 13:20:41;;;;;;;1.37;1.27;;;;;;;;;;5066651;28;20454;-71
2022/09/02 13:23:18;;;;;;;2.43;1.43;;;;;;;;;;5067016;28;20533;-71
2022/09/02 13:26:07;;;;;;;1.13;1.03;;;;;;;;;;5067057;28;20575;-71
2022/09/02 13:28:57;;;;;;;1.17;1.07;;;;;;;;;;5067227;28;20475;-71
2022/09/02 13:31:25;;;;;;;2.70;1.30;;;;;;;;;;5063463;28;20937;-71
2022/09/02 13:33:59;;;;;;;1.50;1.40;;;;;;;;;;5066760;28;20895;-71
2022/09/02 13:36:28;;;;;;;1.20;1.10;;;;;;;;;;5063739;28;20822;-72
2022/09/02 13:38:55;;;;;;;1.37;1.27;;;;;;;;;;5066413;28;20966;-72
2022/09/02 13:41:29;;;;;;;2.20;2.00;;;;;;;;;;5067081;28;20469;-71
2022/09/02 13:44:05;;;;;;;2.20;1.30;;;;;;;;;;5062305;28;20472;-71
2022/09/02 13:46:32;;;;;;;1.50;1.40;;;;;;;;;;5064239;28;20855;-71
2022/09/02 13:49:01;;;;;;;2.23;1.37;;;;;;;;;;5065426;28;20485;-72
2022/09/02 13:51:28;;;;;;;2.70;1.70;;;;;;;;;;5065061;28;20971;-71
2022/09/02 13:53:59;;;;;;;1.40;1.30;;;;;;;;;;5064952;28;20472;-72
2022/09/02 13:56:29;;;;;;;1.43;1.33;;;;;;;;;;5064485;28;20453;-72
2022/09/02 13:58:56;;;;;;;2.50;1.20;;;;;;;;;;5065126;28;20510;-71
2022/09/02 14:01:25;;;;;;;1.60;1.50;;;;;;;;;;5066969;28;20937;-72
2022/09/02 14:03:53;;;;;;;2.40;1.43;;;;;;;;;;5065963;28;20450;-73
2022/09/02 14:06:23;;;;;;;1.93;1.47;;;;;;;;;;5066811;28;20872;-71
2022/09/02 14:08:53;;;;;;;1.50;1.20;;;;;;;;;;5065741;28;20461;-71
2022/09/02 14:11:20;;;;;;;2.30;1.23;;;;;;;;;;5068517;28;20457;-71
2022/09/02 14:13:49;;;;;;;1.60;1.50;;;;;;;;;;5069173;28;20533;-71
2022/09/02 14:16:26;;;;;;;1.37;1.23;;;;;;;;;;5072634;28;20876;-71
2022/09/02 14:19:13;;;;;;;1.90;1.70;;;;;;;;;;5071353;28;20453;-70
2022/09/02 14:21:47;;;;;;;1.73;1.30;;;;;;;;;;5072589;28;20914;-71
2022/09/02 14:24:15;;;;;;;1.33;1.13;;;;;;;;;;5070676;28;20473;-71
2022/09/02 14:26:43;;;;;;;4.90;1.90;;;;;;;;;;5072351;28;20473;-70
2022/09/02 14:29:13;;;;;;;1.00;0.90;;;;;;;;;;5072220;28;20460;-70
2022/09/02 14:31:40;;;;;;;1.63;1.33;;;;;;;;;;5071328;28;21018;-70
2022/09/02 14:34:32;;;;;;;1.40;1.20;;;;;;;;;;5071568;28;20438;-68
2022/09/02 14:37:00;;;;;;;2.07;1.33;;;;;;;;;;5061407;28;20460;-68
2022/09/02 14:39:28;;;;;;;1.60;1.50;;;;;;;;;;5064872;28;20489;-68
2022/09/02 14:41:56;;;;;;;1.60;1.50;;;;;;;;;;5067619;28;20508;-68
2022/09/02 14:44:25;;;;;;;2.03;1.40;;;;;;;;;;5068247;28;20811;-68
2022/09/02 14:46:54;;;;;;;1.30;1.20;;;;;;;;;;5067525;28;20507;-68
2022/09/02 14:49:23;;;;;;;1.93;1.17;;;;;;;;;;5067491;28;20838;-68
2022/09/02 14:51:51;;;;;;;1.50;1.37;;;;;;;;;;5068722;28;20958;-68
2022/09/02 14:54:36;;;;;;;2.43;1.50;;;;;;;;;;5069276;28;20566;-68
2022/09/02 14:57:04;;;;;;;1.37;1.23;;;;;;;;;;5069524;28;20453;-68
2022/09/02 14:59:31;;;;;;;1.30;1.20;;;;;;;;;;5069269;28;20608;-69
2022/09/02 15:01:59;;;;;;;1.33;1.20;;;;;;;;;;5068705;28;20217;-70
2022/09/02 15:04:26;;;;;;;1.58;1.20;;;;;;;;;;5066790;28;20286;-69
2022/09/02 15:06:55;;;;;;;1.95;1.40;;;;;;;;;;5068022;28;20202;-69